TimeEDT,TemperatureF,Dew PointF,Humidity,Sea Level PressureIn,VisibilityMPH,Wind Direction,Wind SpeedMPH,Gust SpeedMPH,PrecipitationIn,Events,Conditions,WindDirDegrees,DateUTC
12:53 AM,62.1,57.9,86,29.99,10.0,NW,4.6,-,N/A,,Clear,320,2012-06-24 04:53:00
1:53 AM,61.0,57.9,90,29.99,10.0,Calm,Calm,-,N/A,,Clear,0,2012-06-24 05:53:00
2:53 AM,60.1,57.0,90,29.99,10.0,Calm,Calm,-,N/A,,Clear,0,2012-06-24 06:53:00
3:53 AM,57.9,57.0,97,29.99,10.0,Calm,Calm,-,N/A,,Clear,0,2012-06-24 07:53:00
4:53 AM,57.9,55.9,93,30.00,10.0,Calm,Calm,-,N/A,,Clear,0,2012-06-24 08:53:00
5:31 AM,55.4,55.4,100,30.00,1.8,Calm,Calm,-,N/A,,Clear,0,2012-06-24 09:31:00
5:40 AM,57.2,55.4,94,30.00,3.0,Calm,Calm,-,N/A,,Clear,0,2012-06-24 09:40:00
5:53 AM,57.0,55.9,96,30.00,10.0,Calm,Calm,-,N/A,,Clear,0,2012-06-24 09:53:00
6:53 AM,61.0,57.9,90,30.00,10.0,Calm,Calm,-,N/A,,Clear,0,2012-06-24 10:53:00
7:53 AM,69.1,57.9,68,30.00,10.0,Calm,Calm,-,N/A,,Clear,0,2012-06-24 11:53:00
8:53 AM,73.9,57.9,57,30.01,10.0,Calm,Calm,-,N/A,,Clear,0,2012-06-24 12:53:00
9:53 AM,79.0,57.0,47,30.01,10.0,Variable,3.5,-,N/A,,Clear,0,2012-06-24 13:53:00
10:53 AM,80.1,54.0,40,29.99,10.0,Calm,Calm,-,N/A,,Clear,0,2012-06-24 14:53:00
11:53 AM,82.0,52.0,35,29.98,10.0,Calm,Calm,-,N/A,,Clear,0,2012-06-24 15:53:00
12:53 PM,82.9,51.1,33,29.97,10.0,Variable,3.5,-,N/A,,Clear,0,2012-06-24 16:53:00
1:53 PM,84.9,53.1,33,29.95,10.0,NW,8.1,-,N/A,,Partly Cloudy,310,2012-06-24 17:53:00
2:53 PM,84.0,52.0,33,29.94,10.0,Variable,3.5,-,N/A,,Clear,0,2012-06-24 18:53:00
3:53 PM,84.0,53.1,34,29.93,10.0,WSW,3.5,-,N/A,,Clear,250,2012-06-24 19:53:00
4:53 PM,82.0,55.9,41,29.91,10.0,Calm,Calm,-,N/A,,Clear,0,2012-06-24 20:53:00
5:53 PM,79.0,63.0,58,29.89,10.0,Calm,Calm,-,N/A,,Clear,0,2012-06-24 21:53:00
6:53 PM,77.0,66.0,69,29.89,10.0,Calm,Calm,-,N/A,,Clear,0,2012-06-24 22:53:00
7:53 PM,75.0,64.0,69,29.88,10.0,Calm,Calm,-,N/A,,Clear,0,2012-06-24 23:53:00
8:53 PM,75.0,62.1,64,29.88,10.0,SSE,4.6,-,N/A,,Clear,160,2012-06-25 00:53:00
9:53 PM,75.0,62.1,64,29.88,10.0,SSE,3.5,-,N/A,,Scattered Clouds,160,2012-06-25 01:53:00
10:53 PM,72.0,63.0,73,29.88,10.0,Calm,Calm,-,N/A,,Scattered Clouds,0,2012-06-25 02:53:00